Archival Weather

Yakutsk

Yakutsk, Russia (UEEE)

Report from: Thursday, January 26, 2023 3:30 AM JST
Current time: Friday, April 19, 2024 7:20 PM JST

Current weather – Weather history – Daily summaries
Weather forecast

Present weatherFog
Temperature-50.0°C (-58.0°F)
Dew point-54.0°C (-65.2°F)
Winds Calm
Visibility656.2 ft. (200 m)
Clouds Ceiling: Vertical visibility 200 ft. (61 m)
Altimeter30.39 in.Hg (1029 mB)
Precip. events QB 6:10 PM
QF 5:43 AM
Relative humidity62 %
Density altitude-9,542 ft. (-2,908 m)
Remarks No significant changes expected in the next two hours
Flight conditions Low Instrument Meteorological Conditions
Raw dataUEEE 251830Z 00000MPS 0200 0150NE R23L/0500N FG VV002 M50/M54 Q1029 R23L/490150 NOSIG RMK QBB070 QFE763
An error has occurred. This application may no longer respond until reloaded. Reload 🗙